createdAt,value
2019-03-25T00:02:10.372Z,1.27
2019-03-25T00:04:41.215Z,1.20
2019-03-25T00:07:12.091Z,1.23
2019-03-25T00:09:42.939Z,1.03
2019-03-25T00:12:13.841Z,1.10
2019-03-25T00:14:44.710Z,1.70
2019-03-25T00:17:15.607Z,1.00
2019-03-25T00:19:46.507Z,1.30
2019-03-25T00:22:16.454Z,1.50
2019-03-25T00:24:47.214Z,1.03
2019-03-25T00:27:17.181Z,1.37
2019-03-25T00:29:47.050Z,2.20
2019-03-25T00:32:16.903Z,1.20
2019-03-25T00:34:47.683Z,1.33
2019-03-25T00:37:18.522Z,1.50
2019-03-25T00:39:49.390Z,1.77
2019-03-25T00:42:20.724Z,1.40
2019-03-25T00:44:51.643Z,1.30
2019-03-25T00:47:22.531Z,1.33
2019-03-25T00:49:53.410Z,1.40
2019-03-25T00:52:24.267Z,1.40
2019-03-25T00:54:55.146Z,1.57
2019-03-25T00:57:25.015Z,1.47
2019-03-25T00:59:55.808Z,1.70
2019-03-25T01:02:26.683Z,1.50
2019-03-25T01:04:57.531Z,1.87
2019-03-25T01:07:27.762Z,2.33
2019-03-25T01:09:57.530Z,1.60
2019-03-25T01:12:28.315Z,1.83
2019-03-25T01:14:58.278Z,1.90
2019-03-25T01:17:28.122Z,1.60
2019-03-25T01:19:58.890Z,1.40
2019-03-25T01:22:28.759Z,1.90
2019-03-25T01:25:02.078Z,2.27
2019-03-25T01:27:31.020Z,1.90
2019-03-25T01:30:01.906Z,1.77
2019-03-25T01:32:32.768Z,1.50
2019-03-25T01:35:03.956Z,2.10
2019-03-25T01:37:34.817Z,1.72
2019-03-25T01:40:06.702Z,2.00
2019-03-25T01:42:37.587Z,1.95
2019-03-25T01:45:07.649Z,2.80
2019-03-25T01:47:37.488Z,1.83
2019-03-25T01:50:07.358Z,1.93
2019-03-25T01:52:38.126Z,2.13
2019-03-25T01:55:13.286Z,1.70
2019-03-25T01:57:40.535Z,1.95
2019-03-25T02:00:10.826Z,1.87
2019-03-25T02:02:41.951Z,1.77
2019-03-25T02:05:12.729Z,1.80
2019-03-25T02:07:43.585Z,1.60
2019-03-25T02:10:14.583Z,2.07
2019-03-25T02:12:45.447Z,1.97
2019-03-25T02:15:16.399Z,2.10
2019-03-25T02:17:47.263Z,1.50
2019-03-25T02:20:25.970Z,2.20
2019-03-25T02:22:49.697Z,1.83
2019-03-25T02:25:25.440Z,1.90
2019-03-25T02:27:52.227Z,2.03
2019-03-25T02:30:23.028Z,2.00
2019-03-25T02:32:53.894Z,1.73
2019-03-25T02:35:23.833Z,1.90
2019-03-25T02:37:54.600Z,2.70
2019-03-25T02:40:25.491Z,1.87
2019-03-25T02:42:56.326Z,2.90
2019-03-25T02:45:27.196Z,2.33
2019-03-25T02:47:58.064Z,2.33
2019-03-25T02:50:28.942Z,2.63
2019-03-25T02:52:58.880Z,2.10
2019-03-25T02:55:41.270Z,2.03
2019-03-25T02:58:02.117Z,2.30
2019-03-25T03:00:37.300Z,2.07
2019-03-25T03:03:10.852Z,2.50
2019-03-25T03:05:41.711Z,2.53
2019-03-25T03:08:12.605Z,2.07
2019-03-25T03:10:43.470Z,2.67
2019-03-25T03:13:14.341Z,2.10
2019-03-25T03:15:45.192Z,2.10
2019-03-25T03:18:16.072Z,2.73
2019-03-25T03:20:47.007Z,2.13
2019-03-25T03:23:17.900Z,2.47
2019-03-25T03:25:56.955Z,2.10
2019-03-25T03:28:21.281Z,2.33
2019-03-25T03:30:52.160Z,2.70
2019-03-25T03:33:22.085Z,2.43
2019-03-25T03:35:52.851Z,1.93
2019-03-25T03:38:23.701Z,2.33
2019-03-25T03:40:54.707Z,1.67
2019-03-25T03:43:25.543Z,2.20
2019-03-25T03:45:55.495Z,2.00
2019-03-25T03:48:26.294Z,1.97
2019-03-25T03:50:56.236Z,2.10
2019-03-25T03:53:27.190Z,2.13
2019-03-25T03:56:12.141Z,2.10
2019-03-25T03:58:32.362Z,2.20
2019-03-25T04:01:03.195Z,2.20
2019-03-25T04:03:34.068Z,3.10
2019-03-25T04:06:04.023Z,2.90
2019-03-25T04:08:34.781Z,1.93
2019-03-25T04:11:05.628Z,2.33
2019-03-25T04:13:36.502Z,2.30
2019-03-25T04:16:07.378Z,1.90
2019-03-25T04:18:38.224Z,2.70
2019-03-25T04:21:09.103Z,2.47
2019-03-25T04:23:39.028Z,2.43
2019-03-25T04:26:09.801Z,2.43
2019-03-25T04:28:39.771Z,2.13
2019-03-25T04:31:10.544Z,2.80
2019-03-25T04:33:40.499Z,2.87
2019-03-25T04:36:10.341Z,2.77
2019-03-25T04:38:41.151Z,2.33
2019-03-25T04:41:11.078Z,2.53
2019-03-25T04:43:41.901Z,2.40
2019-03-25T04:46:12.696Z,2.50
2019-03-25T04:48:43.574Z,2.43
2019-03-25T04:51:13.487Z,2.50
2019-03-25T04:53:44.252Z,2.67
2019-03-25T04:56:14.193Z,2.10
2019-03-25T04:58:44.991Z,2.47
2019-03-25T05:01:15.756Z,2.67
2019-03-25T05:03:46.623Z,2.90
2019-03-25T05:06:17.463Z,3.43
2019-03-25T05:08:48.351Z,2.80
2019-03-25T05:11:30.055Z,2.80
2019-03-25T05:13:51.712Z,2.43
2019-03-25T05:16:22.552Z,2.97
2019-03-25T05:18:52.527Z,2.70
2019-03-25T05:21:23.310Z,3.13
2019-03-25T05:23:53.244Z,3.03
2019-03-25T05:26:23.995Z,2.43
2019-03-25T05:28:54.872Z,2.40
2019-03-25T05:31:25.735Z,3.43
2019-03-25T05:33:56.615Z,3.17
2019-03-25T05:36:26.534Z,2.42
2019-03-25T05:38:57.334Z,2.90
2019-03-25T05:41:28.200Z,2.80
2019-03-25T05:43:59.159Z,2.80
2019-03-25T05:46:30.001Z,3.15
2019-03-25T05:49:00.880Z,3.30
2019-03-25T05:51:31.739Z,2.65
2019-03-25T05:54:02.609Z,3.47
2019-03-25T05:56:32.555Z,2.70
2019-03-25T05:59:03.339Z,2.93
2019-03-25T06:01:33.315Z,2.87
2019-03-25T06:04:04.094Z,2.97
2019-03-25T06:06:34.971Z,2.90
2019-03-25T06:09:05.960Z,2.87
2019-03-25T06:11:37.371Z,3.17
2019-03-25T06:14:08.310Z,3.47
2019-03-25T06:16:38.234Z,3.77
2019-03-25T06:19:09.001Z,3.50
2019-03-25T06:21:39.907Z,3.35
2019-03-25T06:24:11.074Z,3.43
2019-03-25T06:26:41.939Z,3.50
2019-03-25T06:29:12.058Z,3.03
2019-03-25T06:31:41.923Z,2.77
2019-03-25T06:34:12.823Z,3.10
2019-03-25T06:36:43.676Z,2.83
2019-03-25T06:39:13.631Z,3.10
2019-03-25T06:41:44.435Z,3.77
2019-03-25T06:44:14.383Z,3.70
2019-03-25T06:46:45.149Z,3.07
2019-03-25T06:49:16.012Z,3.07
2019-03-25T06:51:46.923Z,3.70
2019-03-25T06:54:17.823Z,2.97
2019-03-25T06:56:48.715Z,2.90
2019-03-25T06:59:19.577Z,3.03
2019-03-25T07:01:50.468Z,3.73
2019-03-25T07:04:21.466Z,3.23
2019-03-25T07:06:52.454Z,2.83
2019-03-25T07:09:22.408Z,3.40
2019-03-25T07:11:53.197Z,3.33
2019-03-25T07:14:24.356Z,2.87
2019-03-25T07:16:54.315Z,3.43
2019-03-25T07:19:25.126Z,3.37
2019-03-25T07:21:55.988Z,3.43
2019-03-25T07:24:26.847Z,3.77
2019-03-25T07:26:57.735Z,3.57
2019-03-25T07:29:28.623Z,3.40
2019-03-25T07:31:59.542Z,3.63
2019-03-25T07:34:30.435Z,4.13
2019-03-25T07:37:01.315Z,3.73
2019-03-25T07:39:32.219Z,3.10
2019-03-25T07:42:03.163Z,3.87
2019-03-25T07:44:34.029Z,3.92
2019-03-25T07:47:03.971Z,3.53
2019-03-25T07:49:33.858Z,3.50
2019-03-25T07:52:03.619Z,3.20
2019-03-25T07:54:34.441Z,3.57
2019-03-25T07:57:04.459Z,3.43
2019-03-25T07:59:34.346Z,2.63
2019-03-25T08:02:04.208Z,2.97
2019-03-25T08:04:34.099Z,2.87
2019-03-25T08:07:03.922Z,18.60
2019-03-25T08:09:33.804Z,14.33
2019-03-25T08:12:03.662Z,10.13
2019-03-25T08:14:34.477Z,9.20
2019-03-25T08:17:04.622Z,5.97
2019-03-25T08:19:35.378Z,13.73
2019-03-25T08:22:06.295Z,14.40
2019-03-25T08:24:37.200Z,3.97
2019-03-25T08:27:08.608Z,20.63
2019-03-25T08:29:39.522Z,34.63
2019-03-25T08:32:10.408Z,5.37
2019-03-25T08:34:40.340Z,2.83
2019-03-25T08:37:11.140Z,52.73
2019-03-25T08:39:42.041Z,15.83
2019-03-25T08:42:12.077Z,10.97
2019-03-25T08:44:42.871Z,5.60
2019-03-25T08:47:13.763Z,2.27
2019-03-25T08:49:44.667Z,2.63
2019-03-25T08:52:15.569Z,2.90
2019-03-25T08:54:46.483Z,2.43
2019-03-25T08:57:18.648Z,3.03
2019-03-25T08:59:49.479Z,10.80
2019-03-25T09:02:20.547Z,3.03
2019-03-25T09:04:51.491Z,4.20
2019-03-25T09:07:21.515Z,3.00
2019-03-25T09:09:51.375Z,2.33
2019-03-25T09:12:21.243Z,2.57
2019-03-25T09:14:51.129Z,2.23
2019-03-25T09:17:21.915Z,1.98
2019-03-25T09:19:52.862Z,2.10
2019-03-25T09:22:22.834Z,2.73
2019-03-25T09:24:53.691Z,2.40
2019-03-25T09:27:23.675Z,1.93
2019-03-25T09:29:54.454Z,2.43
2019-03-25T09:32:24.530Z,2.08
2019-03-25T09:34:54.375Z,1.70
2019-03-25T09:37:25.204Z,2.17
2019-03-25T09:39:56.099Z,1.93
2019-03-25T09:42:26.995Z,2.35
2019-03-25T09:44:57.038Z,1.93
2019-03-25T09:47:27.865Z,1.80
2019-03-25T09:49:58.757Z,1.70
2019-03-25T09:52:38.143Z,2.00
2019-03-25T09:55:02.223Z,1.83
2019-03-25T09:57:33.160Z,1.60
2019-03-25T10:00:04.796Z,2.00
2019-03-25T10:02:35.727Z,2.20
2019-03-25T10:05:07.079Z,2.13
2019-03-25T10:07:38.020Z,1.50
2019-03-25T10:10:09.407Z,2.20
2019-03-25T10:12:39.359Z,2.00
2019-03-25T10:15:10.696Z,1.90
2019-03-25T10:17:41.621Z,2.23
2019-03-25T10:20:11.691Z,1.77
2019-03-25T10:22:42.499Z,2.27
2019-03-25T10:25:14.066Z,2.33
2019-03-25T10:27:44.031Z,2.23
2019-03-25T10:30:14.359Z,1.77
2019-03-25T10:32:45.165Z,1.77
2019-03-25T10:35:15.198Z,1.97
2019-03-25T10:37:46.006Z,1.80
2019-03-25T10:40:17.016Z,2.33
2019-03-25T10:42:47.919Z,2.00
2019-03-25T10:45:18.903Z,1.83
2019-03-25T10:47:51.992Z,2.10
2019-03-25T10:50:21.943Z,1.97
2019-03-25T10:52:52.846Z,1.53
2019-03-25T10:55:23.700Z,1.57
2019-03-25T10:57:54.583Z,2.30
2019-03-25T11:00:25.507Z,2.10
2019-03-25T11:02:55.459Z,5.57
2019-03-25T11:05:26.306Z,1.93
2019-03-25T11:07:57.188Z,1.73
2019-03-25T11:10:28.152Z,2.17
2019-03-25T11:12:59.074Z,1.67
2019-03-25T11:15:30.197Z,2.43
2019-03-25T11:18:01.092Z,2.10
2019-03-25T11:20:31.256Z,2.00
2019-03-25T11:23:02.043Z,2.10
2019-03-25T11:25:33.317Z,1.83
2019-03-25T11:28:04.397Z,1.50
2019-03-25T11:30:57.815Z,1.80
2019-03-25T11:33:28.719Z,1.37
2019-03-25T11:35:58.798Z,1.60
2019-03-25T11:38:29.880Z,1.77
2019-03-25T11:41:00.811Z,1.50
2019-03-25T11:43:32.002Z,1.90
2019-03-25T11:46:02.875Z,1.60
2019-03-25T11:48:32.944Z,1.50
2019-03-25T11:51:03.863Z,1.63
2019-03-25T11:53:33.932Z,1.63
2019-03-25T11:56:03.919Z,1.30
2019-03-25T11:58:33.764Z,1.53
2019-03-25T12:01:04.559Z,1.53
2019-03-25T12:03:35.469Z,1.93
2019-03-25T12:06:06.443Z,1.93
2019-03-25T12:08:37.363Z,2.57
2019-03-25T12:11:07.307Z,2.60
2019-03-25T12:13:38.044Z,2.57
2019-03-25T12:16:08.922Z,1.63
2019-03-25T12:18:39.804Z,1.40
2019-03-25T12:21:09.753Z,1.53
2019-03-25T12:23:40.521Z,2.07
2019-03-25T12:26:10.487Z,2.10
2019-03-25T12:28:41.619Z,1.67
2019-03-25T12:31:12.535Z,1.70
2019-03-25T12:33:43.412Z,1.90
2019-03-25T12:36:14.299Z,1.87
2019-03-25T12:38:44.255Z,1.60
2019-03-25T12:41:14.135Z,1.97
2019-03-25T12:43:44.884Z,2.10
2019-03-25T12:46:15.775Z,1.87
2019-03-25T12:48:46.667Z,2.60
2019-03-25T12:51:17.529Z,2.53
2019-03-25T12:53:47.479Z,1.40
2019-03-25T12:56:18.054Z,1.50
2019-03-25T12:58:47.946Z,1.40
2019-03-25T13:01:19.499Z,1.40
2019-03-25T13:03:50.432Z,1.23
2019-03-25T13:06:20.391Z,2.13
2019-03-25T13:08:50.358Z,7.03
2019-03-25T13:11:20.247Z,4.43
2019-03-25T13:13:51.046Z,1.70
2019-03-25T13:16:22.388Z,1.77
2019-03-25T13:18:52.340Z,1.50
2019-03-25T13:21:22.230Z,1.37
2019-03-25T13:23:53.007Z,2.13
2019-03-25T13:26:23.916Z,1.47
2019-03-25T13:29:02.048Z,1.57
2019-03-25T13:31:26.435Z,1.60
2019-03-25T13:33:56.340Z,1.53
2019-03-25T13:36:26.253Z,1.73
2019-03-25T13:38:57.993Z,1.67
2019-03-25T13:41:29.005Z,1.12
2019-03-25T13:43:59.000Z,1.43
2019-03-25T13:46:29.788Z,1.80
2019-03-25T13:48:59.762Z,1.87
2019-03-25T13:51:30.592Z,1.33
2019-03-25T13:54:01.467Z,1.40
2019-03-25T13:56:32.399Z,1.83
2019-03-25T13:59:03.282Z,1.67
2019-03-25T14:01:34.297Z,1.90
2019-03-25T14:04:04.250Z,1.83
2019-03-25T14:06:35.084Z,1.40
2019-03-25T14:09:07.468Z,1.40
2019-03-25T14:11:38.330Z,2.13
2019-03-25T14:14:08.358Z,1.43
2019-03-25T14:16:38.314Z,1.93
2019-03-25T14:19:09.310Z,1.50
2019-03-25T14:21:39.296Z,1.55
2019-03-25T14:24:09.175Z,1.40
2019-03-25T14:26:39.099Z,1.63
2019-03-25T14:29:08.975Z,1.50
2019-03-25T14:31:39.863Z,1.73
2019-03-25T14:34:09.861Z,1.50
2019-03-25T14:36:40.727Z,1.60
2019-03-25T14:39:10.686Z,2.10
2019-03-25T14:41:41.497Z,1.77
2019-03-25T14:44:11.540Z,1.60
2019-03-25T14:46:42.379Z,1.60
2019-03-25T14:49:13.268Z,1.70
2019-03-25T14:51:44.214Z,1.40
2019-03-25T14:54:14.264Z,1.73
2019-03-25T14:56:45.146Z,1.60
2019-03-25T14:59:16.035Z,1.77
2019-03-25T15:01:46.972Z,1.70
2019-03-25T15:04:16.911Z,2.13
2019-03-25T15:06:47.711Z,3.30
2019-03-25T15:09:17.670Z,1.80
2019-03-25T15:11:48.872Z,1.67
2019-03-25T15:14:18.833Z,1.73
2019-03-25T15:16:48.746Z,2.10
2019-03-25T15:19:18.669Z,4.43
2019-03-25T15:21:49.533Z,2.33
2019-03-25T15:24:19.495Z,1.70
2019-03-25T15:26:50.593Z,1.70
2019-03-25T15:29:20.944Z,1.73
2019-03-25T15:31:50.804Z,1.97
2019-03-25T15:34:20.823Z,1.93
2019-03-25T15:36:50.711Z,6.90
2019-03-25T15:39:20.897Z,1.55
2019-03-25T15:41:50.764Z,1.55
2019-03-25T15:44:20.663Z,1.67
2019-03-25T15:46:55.702Z,2.10
2019-03-25T15:49:23.027Z,4.03
2019-03-25T15:51:55.144Z,1.77
2019-03-25T15:54:25.049Z,1.90
2019-03-25T15:56:55.893Z,1.90
2019-03-25T15:59:25.923Z,1.97
2019-03-25T16:01:56.763Z,1.90
2019-03-25T16:04:26.723Z,2.07
2019-03-25T16:06:56.635Z,1.67
2019-03-25T16:09:28.079Z,2.00
2019-03-25T16:11:58.018Z,1.60
2019-03-25T16:14:28.064Z,1.80
2019-03-25T16:16:57.939Z,2.07
2019-03-25T16:19:28.135Z,2.10
2019-03-25T16:21:58.999Z,1.90
2019-03-25T16:24:29.632Z,2.13
2019-03-25T16:26:59.571Z,1.60
2019-03-25T16:29:29.832Z,1.80
2019-03-25T16:31:59.719Z,1.80
2019-03-25T16:34:29.779Z,1.93
2019-03-25T16:36:59.589Z,1.80
2019-03-25T16:39:29.612Z,2.10
2019-03-25T16:42:00.301Z,1.97
2019-03-25T16:44:30.523Z,1.73
2019-03-25T16:47:00.436Z,1.63
2019-03-25T16:49:31.722Z,2.00
2019-03-25T16:52:01.689Z,1.97
2019-03-25T16:54:31.890Z,2.10
2019-03-25T16:57:01.783Z,2.40
2019-03-25T16:59:33.074Z,2.17
2019-03-25T17:02:04.126Z,2.53
2019-03-25T17:04:34.099Z,2.43
2019-03-25T17:07:04.045Z,2.30
2019-03-25T17:09:34.094Z,2.43
2019-03-25T17:12:05.183Z,1.93
2019-03-25T17:14:36.664Z,2.20
2019-03-25T17:17:07.738Z,1.97
2019-03-25T17:19:37.736Z,2.13
2019-03-25T17:22:08.625Z,2.10
2019-03-25T17:24:39.612Z,2.23
2019-03-25T17:27:10.537Z,2.30
2019-03-25T17:29:40.531Z,2.20
2019-03-25T17:32:10.424Z,2.10
2019-03-25T17:34:40.335Z,2.10
2019-03-25T17:37:10.263Z,2.40
2019-03-25T17:39:41.142Z,2.57
2019-03-25T17:42:11.100Z,2.43
2019-03-25T17:44:41.934Z,2.40
2019-03-25T17:47:11.846Z,2.70
2019-03-25T17:49:41.790Z,2.90
2019-03-25T17:52:13.903Z,2.83
2019-03-25T17:54:44.895Z,3.00
2019-03-25T17:57:14.879Z,3.00
2019-03-25T17:59:45.750Z,3.00
2019-03-25T18:02:15.763Z,2.20
2019-03-25T18:04:45.667Z,2.70
2019-03-25T18:07:17.213Z,3.33
2019-03-25T18:09:50.669Z,8.53
2019-03-25T18:12:20.699Z,42.70
2019-03-25T18:14:51.586Z,47.33
2019-03-25T18:17:21.569Z,124.00
2019-03-25T18:19:52.437Z,300.77
2019-03-25T18:22:22.427Z,351.47
2019-03-25T18:24:52.337Z,200.83
2019-03-25T18:27:22.229Z,71.17
2019-03-25T18:29:53.111Z,47.00
2019-03-25T18:32:23.043Z,22.73
2019-03-25T18:34:52.927Z,13.00
2019-03-25T18:37:22.808Z,10.27
2019-03-25T18:39:53.657Z,4.30
2019-03-25T18:42:23.677Z,3.57
2019-03-25T18:44:54.573Z,5.60
2019-03-25T18:47:24.531Z,4.10
2019-03-25T18:49:55.347Z,3.20
2019-03-25T18:52:25.305Z,2.90
2019-03-25T18:54:56.164Z,2.73
2019-03-25T18:57:26.145Z,3.35
2019-03-25T18:59:57.388Z,3.93
2019-03-25T19:02:28.606Z,4.53
2019-03-25T19:04:59.571Z,3.47
2019-03-25T19:07:29.654Z,3.10
2019-03-25T19:10:01.554Z,3.07
2019-03-25T19:12:32.438Z,3.40
2019-03-25T19:15:03.079Z,3.97
2019-03-25T19:17:33.091Z,3.40
2019-03-25T19:20:02.968Z,4.03
2019-03-25T19:22:32.842Z,4.30
2019-03-25T19:25:02.675Z,3.70
2019-03-25T19:27:32.547Z,4.50
2019-03-25T19:30:02.433Z,4.20
2019-03-25T19:32:32.275Z,3.77
2019-03-25T19:35:03.056Z,3.57
2019-03-25T19:37:33.079Z,4.00
2019-03-25T19:40:03.903Z,3.17
2019-03-25T19:42:34.801Z,4.40
2019-03-25T19:45:04.969Z,3.47
2019-03-25T19:47:35.872Z,3.90
2019-03-25T19:50:06.334Z,4.07
2019-03-25T19:52:37.157Z,4.80
2019-03-25T19:55:07.327Z,5.00
2019-03-25T19:57:37.351Z,5.25
2019-03-25T20:00:09.923Z,5.63
2019-03-25T20:02:39.963Z,6.33
2019-03-25T20:05:09.749Z,6.57
2019-03-25T20:07:39.685Z,6.60
2019-03-25T20:10:17.346Z,6.67
2019-03-25T20:12:47.862Z,5.77
2019-03-25T20:15:18.603Z,6.90
2019-03-25T20:17:49.705Z,5.67
2019-03-25T20:20:20.657Z,6.07
2019-03-25T20:22:50.782Z,6.20
2019-03-25T20:25:20.677Z,4.57
2019-03-25T20:27:50.685Z,5.33
2019-03-25T20:30:20.676Z,6.37
2019-03-25T20:32:51.555Z,4.73
2019-03-25T20:35:21.490Z,5.40
2019-03-25T20:37:51.348Z,4.17
2019-03-25T20:40:22.216Z,4.67
2019-03-25T20:42:53.068Z,4.50
2019-03-25T20:45:23.173Z,5.07
2019-03-25T20:47:54.002Z,4.43
2019-03-25T20:50:24.006Z,4.83
2019-03-25T20:52:54.816Z,5.97
2019-03-25T20:55:25.776Z,5.53
2019-03-25T20:57:56.968Z,4.97
2019-03-25T21:00:52.173Z,5.53
2019-03-25T21:03:22.451Z,4.50
2019-03-25T21:05:53.447Z,5.27
2019-03-25T21:08:23.437Z,4.20
2019-03-25T21:10:53.361Z,3.50
2019-03-25T21:13:23.318Z,3.70
2019-03-25T21:15:54.181Z,3.80
2019-03-25T21:18:25.119Z,5.23
2019-03-25T21:20:55.226Z,4.53
2019-03-25T21:23:25.098Z,4.70
2019-03-25T21:25:56.021Z,5.03
2019-03-25T21:28:27.174Z,4.90
2019-03-25T21:30:58.130Z,4.67
2019-03-25T21:33:29.560Z,3.40
2019-03-25T21:36:00.794Z,3.77
2019-03-25T21:38:31.774Z,3.70
2019-03-25T21:41:01.791Z,3.77
2019-03-25T21:43:32.978Z,4.07
2019-03-25T21:46:04.639Z,3.30
2019-03-25T21:48:35.436Z,4.33
2019-03-25T21:51:06.851Z,3.63
2019-03-25T21:53:38.205Z,3.97
2019-03-25T21:56:10.790Z,3.73
2019-03-25T21:58:41.739Z,3.63
2019-03-25T22:01:11.892Z,3.10
2019-03-25T22:03:42.735Z,3.50
2019-03-25T22:06:12.690Z,3.50
2019-03-25T22:08:43.486Z,3.23
2019-03-25T22:11:13.456Z,4.63
2019-03-25T22:13:43.377Z,3.60
2019-03-25T22:16:14.189Z,3.60
2019-03-25T22:18:44.151Z,3.73
2019-03-25T22:21:14.985Z,3.17
2019-03-25T22:23:45.847Z,3.93
2019-03-25T22:26:16.763Z,3.43
2019-03-25T22:28:47.636Z,3.23
2019-03-25T22:31:19.557Z,3.00
2019-03-25T22:33:50.436Z,2.73
2019-03-25T22:36:21.362Z,3.10
2019-03-25T22:38:52.268Z,3.43
2019-03-25T22:41:22.199Z,3.70
2019-03-25T22:43:53.000Z,3.20
2019-03-25T22:46:22.962Z,3.00
2019-03-25T22:48:52.855Z,3.30
2019-03-25T22:51:22.706Z,3.13
2019-03-25T22:53:52.559Z,3.50
2019-03-25T22:56:22.448Z,2.93
2019-03-25T22:58:53.208Z,3.70
2019-03-25T23:01:23.363Z,3.63
2019-03-25T23:03:54.144Z,4.47
2019-03-25T23:06:25.053Z,3.63
2019-03-25T23:08:55.908Z,4.40
2019-03-25T23:11:26.784Z,4.60
2019-03-25T23:13:57.638Z,4.87
2019-03-25T23:16:28.535Z,4.23
2019-03-25T23:18:59.402Z,4.10
2019-03-25T23:21:30.271Z,3.90
2019-03-25T23:24:01.221Z,3.77
2019-03-25T23:26:31.203Z,3.60
2019-03-25T23:29:01.045Z,3.50
2019-03-25T23:31:31.858Z,3.45
2019-03-25T23:34:02.718Z,3.53
2019-03-25T23:36:32.678Z,3.13
2019-03-25T23:39:04.783Z,3.20
2019-03-25T23:41:35.656Z,2.70
2019-03-25T23:44:05.591Z,2.60
2019-03-25T23:46:36.410Z,3.20
2019-03-25T23:49:06.351Z,3.33
2019-03-25T23:51:37.236Z,3.10
2019-03-25T23:54:14.857Z,3.00
2019-03-25T23:56:45.901Z,3.67
2019-03-25T23:59:16.752Z,3.43
